sensor_id;sensor_type;location;lat;lon;timestamp;P1;durP1;ratioP1;P2;durP2;ratioP2
7334;SDS011;3708;42.632;23.378;2022-11-14T00:00:50;13.87;;;9.63;;
7334;SDS011;3708;42.632;23.378;2022-11-14T00:03:17;16.43;;;10.50;;
7334;SDS011;3708;42.632;23.378;2022-11-14T00:05:44;14.80;;;10.03;;
7334;SDS011;3708;42.632;23.378;2022-11-14T00:08:13;16.90;;;11.07;;
7334;SDS011;3708;42.632;23.378;2022-11-14T00:10:42;15.63;;;10.50;;
7334;SDS011;3708;42.632;23.378;2022-11-14T00:13:14;16.20;;;10.27;;
7334;SDS011;3708;42.632;23.378;2022-11-14T00:15:42;14.43;;;10.03;;
7334;SDS011;3708;42.632;23.378;2022-11-14T00:18:10;15.10;;;9.70;;
7334;SDS011;3708;42.632;23.378;2022-11-14T00:20:37;16.03;;;10.90;;
7334;SDS011;3708;42.632;23.378;2022-11-14T00:23:04;16.17;;;10.37;;
7334;SDS011;3708;42.632;23.378;2022-11-14T00:25:31;16.33;;;9.63;;
7334;SDS011;3708;42.632;23.378;2022-11-14T00:27:58;13.87;;;9.93;;
7334;SDS011;3708;42.632;23.378;2022-11-14T00:30:27;13.70;;;9.57;;
7334;SDS011;3708;42.632;23.378;2022-11-14T00:32:54;18.17;;;11.00;;
7334;SDS011;3708;42.632;23.378;2022-11-14T00:35:21;14.70;;;9.80;;
7334;SDS011;3708;42.632;23.378;2022-11-14T00:37:48;16.50;;;11.37;;
7334;SDS011;3708;42.632;23.378;2022-11-14T00:40:15;14.77;;;9.90;;
7334;SDS011;3708;42.632;23.378;2022-11-14T00:42:42;16.80;;;10.93;;
7334;SDS011;3708;42.632;23.378;2022-11-14T00:45:10;14.83;;;10.00;;
7334;SDS011;3708;42.632;23.378;2022-11-14T00:47:38;15.07;;;10.07;;
7334;SDS011;3708;42.632;23.378;2022-11-14T00:50:05;16.10;;;10.90;;
7334;SDS011;3708;42.632;23.378;2022-11-14T00:52:33;15.57;;;10.40;;
7334;SDS011;3708;42.632;23.378;2022-11-14T00:54:59;15.43;;;10.70;;
7334;SDS011;3708;42.632;23.378;2022-11-14T00:57:26;16.40;;;10.63;;
7334;SDS011;3708;42.632;23.378;2022-11-14T00:59:53;16.23;;;11.33;;
7334;SDS011;3708;42.632;23.378;2022-11-14T01:02:22;15.87;;;10.87;;
7334;SDS011;3708;42.632;23.378;2022-11-14T01:04:50;17.90;;;12.03;;
7334;SDS011;3708;42.632;23.378;2022-11-14T01:07:17;16.10;;;10.83;;
7334;SDS011;3708;42.632;23.378;2022-11-14T01:09:44;14.00;;;10.20;;
7334;SDS011;3708;42.632;23.378;2022-11-14T01:12:11;16.50;;;11.37;;
7334;SDS011;3708;42.632;23.378;2022-11-14T01:14:39;15.93;;;11.20;;
7334;SDS011;3708;42.632;23.378;2022-11-14T01:17:06;17.00;;;11.03;;
7334;SDS011;3708;42.632;23.378;2022-11-14T01:19:33;15.37;;;10.13;;
7334;SDS011;3708;42.632;23.378;2022-11-14T01:22:02;14.33;;;10.47;;
7334;SDS011;3708;42.632;23.378;2022-11-14T01:24:30;16.50;;;11.00;;
7334;SDS011;3708;42.632;23.378;2022-11-14T01:26:58;16.33;;;10.67;;
7334;SDS011;3708;42.632;23.378;2022-11-14T01:29:25;15.80;;;10.03;;
7334;SDS011;3708;42.632;23.378;2022-11-14T01:31:52;16.40;;;11.03;;
7334;SDS011;3708;42.632;23.378;2022-11-14T01:34:19;15.27;;;10.93;;
7334;SDS011;3708;42.632;23.378;2022-11-14T01:36:47;14.17;;;10.73;;
7334;SDS011;3708;42.632;23.378;2022-11-14T01:39:16;17.97;;;9.93;;
7334;SDS011;3708;42.632;23.378;2022-11-14T01:41:43;14.63;;;9.83;;
7334;SDS011;3708;42.632;23.378;2022-11-14T01:44:13;15.13;;;9.67;;
7334;SDS011;3708;42.632;23.378;2022-11-14T01:46:41;14.77;;;10.17;;
7334;SDS011;3708;42.632;23.378;2022-11-14T01:49:31;16.63;;;10.80;;
7334;SDS011;3708;42.632;23.378;2022-11-14T01:52:02;17.80;;;11.80;;
7334;SDS011;3708;42.632;23.378;2022-11-14T01:54:33;15.77;;;10.30;;
7334;SDS011;3708;42.632;23.378;2022-11-14T01:57:03;18.93;;;11.83;;
7334;SDS011;3708;42.632;23.378;2022-11-14T01:59:34;18.03;;;12.00;;
7334;SDS011;3708;42.632;23.378;2022-11-14T02:02:05;18.53;;;12.17;;
7334;SDS011;3708;42.632;23.378;2022-11-14T02:04:44;20.67;;;12.27;;
7334;SDS011;3708;42.632;23.378;2022-11-14T02:07:14;20.10;;;12.90;;
7334;SDS011;3708;42.632;23.378;2022-11-14T02:09:44;20.80;;;12.63;;
7334;SDS011;3708;42.632;23.378;2022-11-14T02:12:14;17.47;;;11.30;;
7334;SDS011;3708;42.632;23.378;2022-11-14T02:14:43;17.63;;;11.27;;
7334;SDS011;3708;42.632;23.378;2022-11-14T02:17:12;18.63;;;11.90;;
7334;SDS011;3708;42.632;23.378;2022-11-14T02:19:41;17.07;;;10.77;;
7334;SDS011;3708;42.632;23.378;2022-11-14T02:22:11;14.43;;;9.80;;
7334;SDS011;3708;42.632;23.378;2022-11-14T02:24:38;14.30;;;9.63;;
7334;SDS011;3708;42.632;23.378;2022-11-14T02:27:06;15.27;;;9.83;;
7334;SDS011;3708;42.632;23.378;2022-11-14T02:29:34;13.27;;;9.07;;
7334;SDS011;3708;42.632;23.378;2022-11-14T02:32:01;15.30;;;9.77;;
7334;SDS011;3708;42.632;23.378;2022-11-14T02:34:28;13.77;;;9.63;;
7334;SDS011;3708;42.632;23.378;2022-11-14T02:36:55;14.07;;;9.50;;
7334;SDS011;3708;42.632;23.378;2022-11-14T02:39:23;12.47;;;8.83;;
7334;SDS011;3708;42.632;23.378;2022-11-14T02:41:52;14.00;;;8.97;;
7334;SDS011;3708;42.632;23.378;2022-11-14T02:44:19;13.33;;;9.97;;
7334;SDS011;3708;42.632;23.378;2022-11-14T02:46:46;15.33;;;10.03;;
7334;SDS011;3708;42.632;23.378;2022-11-14T02:49:13;14.87;;;9.57;;
7334;SDS011;3708;42.632;23.378;2022-11-14T02:51:40;13.97;;;9.90;;
7334;SDS011;3708;42.632;23.378;2022-11-14T02:54:07;12.90;;;8.87;;
7334;SDS011;3708;42.632;23.378;2022-11-14T02:56:36;15.00;;;10.23;;
7334;SDS011;3708;42.632;23.378;2022-11-14T02:59:03;13.87;;;9.80;;
7334;SDS011;3708;42.632;23.378;2022-11-14T03:01:30;11.43;;;8.87;;
7334;SDS011;3708;42.632;23.378;2022-11-14T03:03:57;13.93;;;9.10;;
7334;SDS011;3708;42.632;23.378;2022-11-14T03:06:24;14.07;;;9.80;;
7334;SDS011;3708;42.632;23.378;2022-11-14T03:08:51;15.73;;;10.47;;
7334;SDS011;3708;42.632;23.378;2022-11-14T03:11:18;15.27;;;10.00;;
7334;SDS011;3708;42.632;23.378;2022-11-14T03:13:46;18.77;;;12.27;;
7334;SDS011;3708;42.632;23.378;2022-11-14T03:16:13;17.53;;;13.03;;
7334;SDS011;3708;42.632;23.378;2022-11-14T03:18:40;14.57;;;11.80;;
7334;SDS011;3708;42.632;23.378;2022-11-14T03:21:07;20.00;;;14.37;;
7334;SDS011;3708;42.632;23.378;2022-11-14T03:23:36;18.67;;;13.63;;
7334;SDS011;3708;42.632;23.378;2022-11-14T03:26:04;23.00;;;15.63;;
7334;SDS011;3708;42.632;23.378;2022-11-14T03:28:32;26.70;;;16.20;;
7334;SDS011;3708;42.632;23.378;2022-11-14T03:31:01;19.90;;;14.53;;
7334;SDS011;3708;42.632;23.378;2022-11-14T03:33:28;24.77;;;17.37;;
7334;SDS011;3708;42.632;23.378;2022-11-14T03:35:55;27.60;;;18.30;;
7334;SDS011;3708;42.632;23.378;2022-11-14T03:38:22;26.60;;;17.43;;
7334;SDS011;3708;42.632;23.378;2022-11-14T03:40:49;29.33;;;19.40;;
7334;SDS011;3708;42.632;23.378;2022-11-14T03:43:17;32.80;;;19.23;;
7334;SDS011;3708;42.632;23.378;2022-11-14T03:45:45;32.57;;;19.80;;
7334;SDS011;3708;42.632;23.378;2022-11-14T03:48:14;30.10;;;18.67;;
7334;SDS011;3708;42.632;23.378;2022-11-14T03:50:41;31.90;;;19.33;;
7334;SDS011;3708;42.632;23.378;2022-11-14T03:53:08;33.93;;;19.77;;
7334;SDS011;3708;42.632;23.378;2022-11-14T03:55:35;30.33;;;19.30;;
7334;SDS011;3708;42.632;23.378;2022-11-14T03:58:03;31.83;;;18.73;;
7334;SDS011;3708;42.632;23.378;2022-11-14T04:00:29;31.40;;;19.67;;
7334;SDS011;3708;42.632;23.378;2022-11-14T04:02:56;28.37;;;18.73;;
7334;SDS011;3708;42.632;23.378;2022-11-14T04:05:25;26.47;;;17.67;;
7334;SDS011;3708;42.632;23.378;2022-11-14T04:07:51;26.47;;;16.93;;
7334;SDS011;3708;42.632;23.378;2022-11-14T04:10:18;26.00;;;17.37;;
7334;SDS011;3708;42.632;23.378;2022-11-14T04:12:46;22.50;;;15.87;;
7334;SDS011;3708;42.632;23.378;2022-11-14T04:15:14;23.80;;;15.43;;
7334;SDS011;3708;42.632;23.378;2022-11-14T04:17:41;23.87;;;15.97;;
7334;SDS011;3708;42.632;23.378;2022-11-14T04:20:08;24.30;;;15.93;;
7334;SDS011;3708;42.632;23.378;2022-11-14T04:22:38;23.67;;;15.97;;
7334;SDS011;3708;42.632;23.378;2022-11-14T04:25:06;20.77;;;14.50;;
7334;SDS011;3708;42.632;23.378;2022-11-14T04:27:34;24.33;;;16.00;;
7334;SDS011;3708;42.632;23.378;2022-11-14T04:30:01;21.87;;;15.50;;
7334;SDS011;3708;42.632;23.378;2022-11-14T04:32:29;22.13;;;14.87;;
7334;SDS011;3708;42.632;23.378;2022-11-14T04:34:56;23.87;;;15.70;;
7334;SDS011;3708;42.632;23.378;2022-11-14T04:37:22;18.67;;;13.67;;
7334;SDS011;3708;42.632;23.378;2022-11-14T04:39:51;21.23;;;14.50;;
7334;SDS011;3708;42.632;23.378;2022-11-14T04:42:18;22.20;;;15.20;;
7334;SDS011;3708;42.632;23.378;2022-11-14T04:44:45;18.03;;;12.33;;
7334;SDS011;3708;42.632;23.378;2022-11-14T04:47:12;22.10;;;15.37;;
7334;SDS011;3708;42.632;23.378;2022-11-14T04:49:40;20.87;;;14.33;;
7334;SDS011;3708;42.632;23.378;2022-11-14T04:52:07;19.07;;;13.47;;
7334;SDS011;3708;42.632;23.378;2022-11-14T04:54:34;18.03;;;12.33;;
7334;SDS011;3708;42.632;23.378;2022-11-14T04:57:03;17.13;;;12.43;;
7334;SDS011;3708;42.632;23.378;2022-11-14T04:59:30;17.23;;;11.63;;
7334;SDS011;3708;42.632;23.378;2022-11-14T05:01:57;15.87;;;11.67;;
7334;SDS011;3708;42.632;23.378;2022-11-14T05:04:24;18.33;;;12.00;;
7334;SDS011;3708;42.632;23.378;2022-11-14T05:06:51;15.90;;;11.43;;
7334;SDS011;3708;42.632;23.378;2022-11-14T05:09:18;14.77;;;11.63;;
7334;SDS011;3708;42.632;23.378;2022-11-14T05:11:45;16.83;;;12.80;;
7334;SDS011;3708;42.632;23.378;2022-11-14T05:14:14;22.03;;;13.43;;
7334;SDS011;3708;42.632;23.378;2022-11-14T05:16:41;29.23;;;14.07;;
7334;SDS011;3708;42.632;23.378;2022-11-14T05:19:08;27.17;;;13.33;;
7334;SDS011;3708;42.632;23.378;2022-11-14T05:21:35;22.20;;;13.83;;
7334;SDS011;3708;42.632;23.378;2022-11-14T05:24:01;20.87;;;14.60;;
7334;SDS011;3708;42.632;23.378;2022-11-14T05:26:28;40.30;;;16.10;;
7334;SDS011;3708;42.632;23.378;2022-11-14T05:28:55;24.93;;;14.37;;
7334;SDS011;3708;42.632;23.378;2022-11-14T05:31:24;25.60;;;15.43;;
7334;SDS011;3708;42.632;23.378;2022-11-14T05:33:51;32.10;;;17.03;;
7334;SDS011;3708;42.632;23.378;2022-11-14T05:36:17;42.63;;;19.20;;
7334;SDS011;3708;42.632;23.378;2022-11-14T05:38:45;39.77;;;18.83;;
7334;SDS011;3708;42.632;23.378;2022-11-14T05:41:13;46.97;;;20.03;;
7334;SDS011;3708;42.632;23.378;2022-11-14T05:43:41;51.40;;;19.23;;
7334;SDS011;3708;42.632;23.378;2022-11-14T05:46:09;35.67;;;18.33;;
7334;SDS011;3708;42.632;23.378;2022-11-14T05:48:39;37.53;;;20.47;;
7334;SDS011;3708;42.632;23.378;2022-11-14T05:51:07;49.83;;;21.87;;
7334;SDS011;3708;42.632;23.378;2022-11-14T05:53:36;52.53;;;20.73;;
7334;SDS011;3708;42.632;23.378;2022-11-14T05:56:03;49.53;;;20.73;;
7334;SDS011;3708;42.632;23.378;2022-11-14T05:58:31;79.10;;;21.73;;
7334;SDS011;3708;42.632;23.378;2022-11-14T06:01:03;97.43;;;21.47;;
7334;SDS011;3708;42.632;23.378;2022-11-14T06:03:32;92.47;;;20.73;;
7334;SDS011;3708;42.632;23.378;2022-11-14T06:06:02;62.23;;;19.73;;
7334;SDS011;3708;42.632;23.378;2022-11-14T06:08:31;40.23;;;20.10;;
7334;SDS011;3708;42.632;23.378;2022-11-14T06:11:00;34.00;;;18.00;;
7334;SDS011;3708;42.632;23.378;2022-11-14T06:13:28;72.20;;;16.60;;
7334;SDS011;3708;42.632;23.378;2022-11-14T06:15:57;58.63;;;15.40;;
7334;SDS011;3708;42.632;23.378;2022-11-14T06:18:25;30.33;;;15.63;;
7334;SDS011;3708;42.632;23.378;2022-11-14T06:20:52;46.67;;;15.30;;
7334;SDS011;3708;42.632;23.378;2022-11-14T06:23:20;31.10;;;15.53;;
7334;SDS011;3708;42.632;23.378;2022-11-14T06:25:47;26.37;;;15.83;;
7334;SDS011;3708;42.632;23.378;2022-11-14T06:28:14;45.20;;;16.87;;
7334;SDS011;3708;42.632;23.378;2022-11-14T06:30:40;112.27;;;20.37;;
7334;SDS011;3708;42.632;23.378;2022-11-14T06:33:07;36.73;;;16.57;;
7334;SDS011;3708;42.632;23.378;2022-11-14T06:35:34;37.60;;;17.43;;
7334;SDS011;3708;42.632;23.378;2022-11-14T06:38:01;36.37;;;16.47;;
7334;SDS011;3708;42.632;23.378;2022-11-14T06:40:29;36.90;;;16.20;;
7334;SDS011;3708;42.632;23.378;2022-11-14T06:42:56;46.00;;;16.37;;
7334;SDS011;3708;42.632;23.378;2022-11-14T06:45:23;25.93;;;15.83;;
7334;SDS011;3708;42.632;23.378;2022-11-14T06:47:50;31.33;;;17.77;;
7334;SDS011;3708;42.632;23.378;2022-11-14T06:50:17;27.57;;;17.47;;
7334;SDS011;3708;42.632;23.378;2022-11-14T06:52:44;26.67;;;15.70;;
7334;SDS011;3708;42.632;23.378;2022-11-14T06:55:11;31.27;;;17.80;;
7334;SDS011;3708;42.632;23.378;2022-11-14T06:57:39;29.90;;;18.33;;
7334;SDS011;3708;42.632;23.378;2022-11-14T07:00:09;26.27;;;15.97;;
7334;SDS011;3708;42.632;23.378;2022-11-14T07:02:36;30.03;;;15.07;;
7334;SDS011;3708;42.632;23.378;2022-11-14T07:05:03;25.77;;;15.33;;
7334;SDS011;3708;42.632;23.378;2022-11-14T07:07:31;35.43;;;16.93;;
7334;SDS011;3708;42.632;23.378;2022-11-14T07:09:58;29.27;;;17.03;;
7334;SDS011;3708;42.632;23.378;2022-11-14T07:12:24;32.93;;;17.10;;
7334;SDS011;3708;42.632;23.378;2022-11-14T07:14:54;30.27;;;15.90;;
7334;SDS011;3708;42.632;23.378;2022-11-14T07:17:21;29.20;;;16.97;;
7334;SDS011;3708;42.632;23.378;2022-11-14T07:19:48;36.40;;;17.27;;
7334;SDS011;3708;42.632;23.378;2022-11-14T07:22:15;28.97;;;16.93;;
7334;SDS011;3708;42.632;23.378;2022-11-14T07:24:42;25.77;;;17.23;;
7334;SDS011;3708;42.632;23.378;2022-11-14T07:27:09;25.43;;;16.00;;
7334;SDS011;3708;42.632;23.378;2022-11-14T07:29:36;35.03;;;16.50;;
7334;SDS011;3708;42.632;23.378;2022-11-14T07:32:05;35.43;;;17.27;;
7334;SDS011;3708;42.632;23.378;2022-11-14T07:34:32;42.07;;;18.07;;
7334;SDS011;3708;42.632;23.378;2022-11-14T07:36:58;31.07;;;17.07;;
7334;SDS011;3708;42.632;23.378;2022-11-14T07:39:25;31.10;;;17.60;;
7334;SDS011;3708;42.632;23.378;2022-11-14T07:41:52;29.80;;;17.70;;
7334;SDS011;3708;42.632;23.378;2022-11-14T07:44:19;28.70;;;17.13;;
7334;SDS011;3708;42.632;23.378;2022-11-14T07:46:46;35.60;;;19.20;;
7334;SDS011;3708;42.632;23.378;2022-11-14T07:49:15;33.33;;;20.23;;
7334;SDS011;3708;42.632;23.378;2022-11-14T07:51:42;33.73;;;19.67;;
7334;SDS011;3708;42.632;23.378;2022-11-14T07:54:09;36.60;;;19.37;;
7334;SDS011;3708;42.632;23.378;2022-11-14T07:56:37;36.10;;;19.53;;
7334;SDS011;3708;42.632;23.378;2022-11-14T07:59:04;32.83;;;18.87;;
7334;SDS011;3708;42.632;23.378;2022-11-14T08:01:31;51.77;;;19.13;;
7334;SDS011;3708;42.632;23.378;2022-11-14T08:03:58;35.90;;;18.47;;
7334;SDS011;3708;42.632;23.378;2022-11-14T08:06:27;37.70;;;19.97;;
7334;SDS011;3708;42.632;23.378;2022-11-14T08:08:54;34.27;;;18.70;;
7334;SDS011;3708;42.632;23.378;2022-11-14T08:11:21;36.13;;;18.73;;
7334;SDS011;3708;42.632;23.378;2022-11-14T08:14:01;32.70;;;18.77;;
7334;SDS011;3708;42.632;23.378;2022-11-14T08:16:28;31.47;;;19.00;;
7334;SDS011;3708;42.632;23.378;2022-11-14T08:18:55;31.67;;;17.57;;
7334;SDS011;3708;42.632;23.378;2022-11-14T08:21:22;27.57;;;17.47;;
7334;SDS011;3708;42.632;23.378;2022-11-14T08:23:51;33.40;;;19.20;;
7334;SDS011;3708;42.632;23.378;2022-11-14T08:26:17;28.27;;;18.07;;
7334;SDS011;3708;42.632;23.378;2022-11-14T08:28:44;29.60;;;17.70;;
7334;SDS011;3708;42.632;23.378;2022-11-14T08:31:11;27.00;;;17.60;;
7334;SDS011;3708;42.632;23.378;2022-11-14T08:33:38;31.40;;;17.67;;
7334;SDS011;3708;42.632;23.378;2022-11-14T08:36:06;33.63;;;18.63;;
7334;SDS011;3708;42.632;23.378;2022-11-14T08:38:33;36.47;;;19.17;;
7334;SDS011;3708;42.632;23.378;2022-11-14T08:41:02;30.80;;;19.67;;
7334;SDS011;3708;42.632;23.378;2022-11-14T08:43:30;35.43;;;18.67;;
7334;SDS011;3708;42.632;23.378;2022-11-14T08:45:57;29.77;;;18.73;;
7334;SDS011;3708;42.632;23.378;2022-11-14T08:48:25;30.33;;;19.00;;
7334;SDS011;3708;42.632;23.378;2022-11-14T08:50:52;28.83;;;18.83;;
7334;SDS011;3708;42.632;23.378;2022-11-14T08:53:19;29.57;;;18.33;;
7334;SDS011;3708;42.632;23.378;2022-11-14T08:55:46;31.30;;;18.47;;
7334;SDS011;3708;42.632;23.378;2022-11-14T08:58:15;29.53;;;18.87;;
7334;SDS011;3708;42.632;23.378;2022-11-14T09:00:42;36.93;;;21.20;;
7334;SDS011;3708;42.632;23.378;2022-11-14T09:03:09;37.87;;;20.63;;
7334;SDS011;3708;42.632;23.378;2022-11-14T09:05:38;36.57;;;20.67;;
7334;SDS011;3708;42.632;23.378;2022-11-14T09:08:05;33.50;;;20.00;;
7334;SDS011;3708;42.632;23.378;2022-11-14T09:10:33;35.67;;;20.90;;
7334;SDS011;3708;42.632;23.378;2022-11-14T09:13:00;36.70;;;21.83;;
7334;SDS011;3708;42.632;23.378;2022-11-14T09:15:29;38.50;;;21.10;;
7334;SDS011;3708;42.632;23.378;2022-11-14T09:17:57;38.73;;;21.87;;
7334;SDS011;3708;42.632;23.378;2022-11-14T09:20:25;33.97;;;21.40;;
7334;SDS011;3708;42.632;23.378;2022-11-14T09:22:56;34.17;;;20.83;;
7334;SDS011;3708;42.632;23.378;2022-11-14T09:25:23;34.77;;;22.30;;
7334;SDS011;3708;42.632;23.378;2022-11-14T09:27:51;40.07;;;21.40;;
7334;SDS011;3708;42.632;23.378;2022-11-14T09:30:19;34.07;;;21.30;;
7334;SDS011;3708;42.632;23.378;2022-11-14T09:32:48;37.47;;;22.43;;
7334;SDS011;3708;42.632;23.378;2022-11-14T09:35:15;35.10;;;22.27;;
7334;SDS011;3708;42.632;23.378;2022-11-14T09:37:42;38.20;;;21.63;;
7334;SDS011;3708;42.632;23.378;2022-11-14T09:40:10;38.63;;;21.53;;
7334;SDS011;3708;42.632;23.378;2022-11-14T09:42:44;39.90;;;21.70;;
7334;SDS011;3708;42.632;23.378;2022-11-14T09:45:24;36.20;;;22.07;;
7334;SDS011;3708;42.632;23.378;2022-11-14T09:47:55;37.80;;;21.93;;
7334;SDS011;3708;42.632;23.378;2022-11-14T09:50:32;40.30;;;24.70;;
7334;SDS011;3708;42.632;23.378;2022-11-14T09:53:04;36.57;;;22.77;;
7334;SDS011;3708;42.632;23.378;2022-11-14T09:55:35;37.07;;;22.97;;
7334;SDS011;3708;42.632;23.378;2022-11-14T09:58:03;37.33;;;23.30;;
7334;SDS011;3708;42.632;23.378;2022-11-14T10:00:45;38.63;;;22.80;;
7334;SDS011;3708;42.632;23.378;2022-11-14T10:03:19;34.70;;;22.07;;
7334;SDS011;3708;42.632;23.378;2022-11-14T10:05:57;37.40;;;22.13;;
7334;SDS011;3708;42.632;23.378;2022-11-14T10:11:41;37.30;;;22.17;;
7334;SDS011;3708;42.632;23.378;2022-11-14T10:17:23;37.97;;;21.70;;
7334;SDS011;3708;42.632;23.378;2022-11-14T10:20:10;36.27;;;22.03;;
7334;SDS011;3708;42.632;23.378;2022-11-14T10:22:52;37.13;;;23.33;;
7334;SDS011;3708;42.632;23.378;2022-11-14T10:25:33;33.47;;;21.07;;
7334;SDS011;3708;42.632;23.378;2022-11-14T10:28:19;32.40;;;20.33;;
7334;SDS011;3708;42.632;23.378;2022-11-14T10:31:04;34.87;;;22.50;;
7334;SDS011;3708;42.632;23.378;2022-11-14T10:33:42;37.53;;;22.83;;
7334;SDS011;3708;42.632;23.378;2022-11-14T10:36:18;35.63;;;21.90;;
7334;SDS011;3708;42.632;23.378;2022-11-14T10:38:55;35.70;;;21.90;;
7334;SDS011;3708;42.632;23.378;2022-11-14T10:41:30;32.87;;;21.70;;
7334;SDS011;3708;42.632;23.378;2022-11-14T10:43:58;34.57;;;22.47;;
7334;SDS011;3708;42.632;23.378;2022-11-14T10:46:26;34.03;;;21.77;;
7334;SDS011;3708;42.632;23.378;2022-11-14T10:48:57;39.20;;;22.30;;
7334;SDS011;3708;42.632;23.378;2022-11-14T10:51:27;36.47;;;22.87;;
7334;SDS011;3708;42.632;23.378;2022-11-14T10:53:58;36.60;;;22.60;;
7334;SDS011;3708;42.632;23.378;2022-11-14T10:56:29;35.43;;;21.97;;
7334;SDS011;3708;42.632;23.378;2022-11-14T10:58:56;39.67;;;22.10;;
7334;SDS011;3708;42.632;23.378;2022-11-14T11:01:37;34.97;;;22.10;;
7334;SDS011;3708;42.632;23.378;2022-11-14T11:04:12;31.73;;;21.47;;
7334;SDS011;3708;42.632;23.378;2022-11-14T11:06:53;36.33;;;22.00;;
7334;SDS011;3708;42.632;23.378;2022-11-14T11:09:22;32.67;;;20.10;;
7334;SDS011;3708;42.632;23.378;2022-11-14T11:12:08;32.30;;;19.60;;
7334;SDS011;3708;42.632;23.378;2022-11-14T11:14:41;28.37;;;20.47;;
7334;SDS011;3708;42.632;23.378;2022-11-14T11:17:19;29.73;;;20.43;;
7334;SDS011;3708;42.632;23.378;2022-11-14T11:19:48;31.30;;;19.43;;
7334;SDS011;3708;42.632;23.378;2022-11-14T11:22:23;33.17;;;20.80;;
7334;SDS011;3708;42.632;23.378;2022-11-14T11:24:53;33.73;;;20.33;;
7334;SDS011;3708;42.632;23.378;2022-11-14T11:27:21;31.33;;;19.53;;
7334;SDS011;3708;42.632;23.378;2022-11-14T11:30:00;32.50;;;20.53;;
7334;SDS011;3708;42.632;23.378;2022-11-14T11:32:32;38.20;;;20.40;;
7334;SDS011;3708;42.632;23.378;2022-11-14T11:35:00;32.30;;;21.07;;
7334;SDS011;3708;42.632;23.378;2022-11-14T11:37:37;36.80;;;21.43;;
7334;SDS011;3708;42.632;23.378;2022-11-14T11:40:11;34.20;;;19.47;;
7334;SDS011;3708;42.632;23.378;2022-11-14T11:42:44;31.83;;;18.47;;
7334;SDS011;3708;42.632;23.378;2022-11-14T11:45:15;27.83;;;19.37;;
7334;SDS011;3708;42.632;23.378;2022-11-14T11:47:47;27.90;;;19.63;;
7334;SDS011;3708;42.632;23.378;2022-11-14T11:50:20;32.97;;;20.23;;
7334;SDS011;3708;42.632;23.378;2022-11-14T11:52:50;32.57;;;20.23;;
7334;SDS011;3708;42.632;23.378;2022-11-14T11:55:26;33.97;;;20.37;;
7334;SDS011;3708;42.632;23.378;2022-11-14T11:58:00;27.60;;;19.07;;
7334;SDS011;3708;42.632;23.378;2022-11-14T12:00:30;31.10;;;19.33;;
7334;SDS011;3708;42.632;23.378;2022-11-14T12:02:58;32.90;;;21.33;;
7334;SDS011;3708;42.632;23.378;2022-11-14T12:05:27;29.93;;;20.03;;
7334;SDS011;3708;42.632;23.378;2022-11-14T12:08:04;31.20;;;20.50;;
7334;SDS011;3708;42.632;23.378;2022-11-14T12:10:37;32.03;;;21.30;;
7334;SDS011;3708;42.632;23.378;2022-11-14T12:13:11;38.43;;;21.07;;
7334;SDS011;3708;42.632;23.378;2022-11-14T12:16:07;31.13;;;20.90;;
7334;SDS011;3708;42.632;23.378;2022-11-14T12:18:47;30.17;;;20.73;;
7334;SDS011;3708;42.632;23.378;2022-11-14T12:21:37;34.07;;;21.53;;
7334;SDS011;3708;42.632;23.378;2022-11-14T12:24:25;34.57;;;23.17;;
7334;SDS011;3708;42.632;23.378;2022-11-14T12:27:19;33.67;;;22.10;;
7334;SDS011;3708;42.632;23.378;2022-11-14T12:30:02;33.63;;;23.13;;
7334;SDS011;3708;42.632;23.378;2022-11-14T12:32:36;38.40;;;23.77;;
7334;SDS011;3708;42.632;23.378;2022-11-14T12:35:07;30.83;;;22.50;;
7334;SDS011;3708;42.632;23.378;2022-11-14T12:37:44;36.43;;;23.67;;
7334;SDS011;3708;42.632;23.378;2022-11-14T12:40:24;34.10;;;23.20;;
7334;SDS011;3708;42.632;23.378;2022-11-14T12:42:54;31.50;;;22.33;;
7334;SDS011;3708;42.632;23.378;2022-11-14T12:48:33;42.20;;;22.00;;
7334;SDS011;3708;42.632;23.378;2022-11-14T12:51:03;34.73;;;21.60;;
7334;SDS011;3708;42.632;23.378;2022-11-14T12:53:43;33.97;;;21.70;;
7334;SDS011;3708;42.632;23.378;2022-11-14T12:56:15;34.27;;;23.40;;
7334;SDS011;3708;42.632;23.378;2022-11-14T12:59:05;40.67;;;22.23;;
7334;SDS011;3708;42.632;23.378;2022-11-14T13:01:46;31.70;;;22.10;;
7334;SDS011;3708;42.632;23.378;2022-11-14T13:04:24;35.67;;;23.87;;
7334;SDS011;3708;42.632;23.378;2022-11-14T13:07:14;32.73;;;21.27;;
7334;SDS011;3708;42.632;23.378;2022-11-14T13:12:58;33.37;;;22.57;;
7334;SDS011;3708;42.632;23.378;2022-11-14T13:15:48;34.27;;;24.03;;
7334;SDS011;3708;42.632;23.378;2022-11-14T13:18:34;35.23;;;22.60;;
7334;SDS011;3708;42.632;23.378;2022-11-14T13:21:21;35.20;;;23.33;;
7334;SDS011;3708;42.632;23.378;2022-11-14T13:24:07;32.80;;;22.60;;
7334;SDS011;3708;42.632;23.378;2022-11-14T13:26:45;37.43;;;23.63;;
7334;SDS011;3708;42.632;23.378;2022-11-14T13:38:36;32.50;;;23.87;;
7334;SDS011;3708;42.632;23.378;2022-11-14T13:41:39;38.47;;;24.00;;
7334;SDS011;3708;42.632;23.378;2022-11-14T13:44:32;38.43;;;22.43;;
7334;SDS011;3708;42.632;23.378;2022-11-14T13:50:30;32.83;;;22.77;;
7334;SDS011;3708;42.632;23.378;2022-11-14T13:53:02;43.17;;;25.30;;
7334;SDS011;3708;42.632;23.378;2022-11-14T13:55:44;32.77;;;23.50;;
7334;SDS011;3708;42.632;23.378;2022-11-14T14:01:01;41.20;;;23.93;;
7334;SDS011;3708;42.632;23.378;2022-11-14T14:04:01;39.30;;;24.90;;
7334;SDS011;3708;42.632;23.378;2022-11-14T14:06:56;35.20;;;23.80;;
7334;SDS011;3708;42.632;23.378;2022-11-14T14:12:41;37.07;;;23.90;;
7334;SDS011;3708;42.632;23.378;2022-11-14T14:15:26;42.93;;;24.33;;
7334;SDS011;3708;42.632;23.378;2022-11-14T14:18:00;41.20;;;25.97;;
7334;SDS011;3708;42.632;23.378;2022-11-14T14:20:39;45.20;;;25.47;;
7334;SDS011;3708;42.632;23.378;2022-11-14T14:23:22;41.43;;;24.73;;
7334;SDS011;3708;42.632;23.378;2022-11-14T14:26:00;41.33;;;25.70;;
7334;SDS011;3708;42.632;23.378;2022-11-14T14:28:38;48.00;;;27.53;;
7334;SDS011;3708;42.632;23.378;2022-11-14T14:31:17;51.90;;;28.23;;
7334;SDS011;3708;42.632;23.378;2022-11-14T14:33:48;46.57;;;28.20;;
7334;SDS011;3708;42.632;23.378;2022-11-14T14:36:20;52.40;;;28.53;;
7334;SDS011;3708;42.632;23.378;2022-11-14T14:39:04;54.07;;;28.97;;
7334;SDS011;3708;42.632;23.378;2022-11-14T14:41:41;50.63;;;28.50;;
7334;SDS011;3708;42.632;23.378;2022-11-14T14:44:10;53.73;;;27.83;;
7334;SDS011;3708;42.632;23.378;2022-11-14T14:46:46;61.30;;;28.30;;
7334;SDS011;3708;42.632;23.378;2022-11-14T14:49:16;53.40;;;27.53;;
7334;SDS011;3708;42.632;23.378;2022-11-14T14:51:46;56.50;;;28.50;;
7334;SDS011;3708;42.632;23.378;2022-11-14T14:54:20;55.43;;;28.37;;
7334;SDS011;3708;42.632;23.378;2022-11-14T14:56:51;55.20;;;28.03;;
7334;SDS011;3708;42.632;23.378;2022-11-14T14:59:25;79.40;;;31.40;;
7334;SDS011;3708;42.632;23.378;2022-11-14T15:01:54;55.13;;;29.17;;
7334;SDS011;3708;42.632;23.378;2022-11-14T15:04:24;54.63;;;27.27;;
7334;SDS011;3708;42.632;23.378;2022-11-14T15:06:53;60.30;;;29.10;;
7334;SDS011;3708;42.632;23.378;2022-11-14T15:09:23;65.67;;;29.87;;
7334;SDS011;3708;42.632;23.378;2022-11-14T15:11:52;61.40;;;30.03;;
7334;SDS011;3708;42.632;23.378;2022-11-14T15:14:26;58.60;;;29.70;;
7334;SDS011;3708;42.632;23.378;2022-11-14T15:17:00;55.50;;;29.53;;
7334;SDS011;3708;42.632;23.378;2022-11-14T15:19:30;55.17;;;29.40;;
7334;SDS011;3708;42.632;23.378;2022-11-14T15:22:18;52.60;;;29.83;;
7334;SDS011;3708;42.632;23.378;2022-11-14T15:25:14;65.00;;;29.27;;
7334;SDS011;3708;42.632;23.378;2022-11-14T15:27:45;56.97;;;28.27;;